Haverhill, NH (03765)

3:56 PM EDT on July 07, 2015 (GMT -0400)
Goshen Heights | | Change Station
CLOSE
Current Station
Personal Weather Station
Location: Bradford, VT
Elevation: 1060 ft
Nearby Weather Stations

Elev 1060 ft 44.01 °N, 72.14 °W | Updated 5 seconds ago

Overcast
Overcast
77.8 °F
Feels Like 80 °F
N
8.0
Wind Variable Wind from SE
Gusts 10.0 mph

Today
High -- | Low -- °F
--% Chance of Precip.
Yesterday
High -- | Low -- °F
Precip. -- in
5:12 AM 8:33 PM
Waning Gibbous, 62% visible
Pressure 29.96 in
Visibility 10.0 miles
Clouds Scattered Clouds 3900 ft
Scattered Clouds 4900 ft
Overcast 6000 ft
Heat Index 80 °F
Dew Point 71 °F
Humidity 79%
Rainfall 0.01 in
Snow Depth Not available.
UV 2 out of 12
Pollen 1.90 out of 12
Air Quality Not available.
Flu Activity Not available.
METAR K1P1 071955Z AUTO 18005KT 10SM SCT039 SCT049 OVC060 26/23 A2996 RMK AO2 T02570225

More Conditions Fewer Conditions

Pressure 29.96 in
Visibility 10.0 miles
Clouds Scattered Clouds 3900 ft
Scattered Clouds 4900 ft
Overcast 6000 ft
Heat Index 80 °F
Dew Point 71 °F
Humidity 79%
Rainfall 0.01 in
Snow Depth Not available.
UV 2 out of 12
Pollen 1.90 out of 12
Air Quality Not available.
Flu Activity Not available.
METAR K1P1 071955Z AUTO 18005KT 10SM SCT039 SCT049 OVC060 26/23 A2996 RMK AO2 T02570225

More Conditions Fewer Conditions

10-Day Weather Forecast

×

Almanac

Astronomy

Jul. 07, 2015 Rise Set
Actual Time
Civil Twilight
Nautical Twilight
Astronomical Twilight
Moon
Length of Visible Light
Length of Day
Tomorrow will be .
, % of the Moon is Illuminated

Today's Extremes

State Highs State Lows

Community

WunderPhotos

Upload Photos

1,835,884 photos uploaded!

WunderBlogs® & News

Nearby

Air Quality

  Air Quality AQ Index Pollutant
Not available.

Snow Depth

Station Depth Elevation

Earthquake Activity

City Distance Mag. Time & Date
Minimum magnitude displayed is 2.5.

Coastal Water Temperatures

Place Temperature

Stations

Nearby Weather Stations

Station Location Temp. Windchill Dew Point Humidity Wind Precip. Elev Updated Type